Time;durP1;ratioP1;P1;durP2;ratioP2;P2;SDS_P1;SDS_P2;PMS_P1;PMS_P2;Temp;Humidity;BMP_temperature;BMP_pressure;BME280_temperature;BME280_humidity;BME280_pressure;Samples;Min_cycle;Max_cycle;Signal;HPM_P1;HPM_P2
2023/10/14 00:00:26;;;;;;;20.58;12.98;;;;;;;14.33;100.00;92878.03;6256202;22;20026;-81
2023/10/14 00:02:52;;;;;;;19.83;13.27;;;;;;;14.31;100.00;92878.31;6281095;22;20017;-80
2023/10/14 00:05:20;;;;;;;24.23;13.52;;;;;;;14.31;100.00;92867.78;6280929;22;20086;-82
2023/10/14 00:07:45;;;;;;;19.67;13.77;;;;;;;14.31;100.00;92872.28;6307929;22;20023;-81
2023/10/14 00:10:12;;;;;;;21.67;13.18;;;;;;;14.28;100.00;92863.13;6281000;22;20003;-81
2023/10/14 00:12:39;;;;;;;22.48;13.20;;;;;;;14.29;100.00;92861.25;6281275;22;20072;-82
2023/10/14 00:15:06;;;;;;;21.13;12.95;;;;;;;14.26;100.00;92852.09;6281787;22;19999;-81
2023/10/14 00:17:41;;;;;;;21.00;13.15;;;;;;;14.29;100.00;92848.88;6308508;22;20011;-81
2023/10/14 00:20:09;;;;;;;21.42;13.95;;;;;;;14.29;100.00;92843.59;6257870;22;20023;-81
2023/10/14 00:22:38;;;;;;;20.33;14.00;;;;;;;14.28;100.00;92836.78;6308743;22;20048;-81
2023/10/14 00:25:11;;;;;;;22.13;14.23;;;;;;;14.27;100.00;92834.44;6308197;22;20011;-81
2023/10/14 00:27:37;;;;;;;22.73;13.90;;;;;;;14.25;100.00;92836.59;6308541;22;20018;-81
2023/10/14 00:30:09;;;;;;;21.45;14.18;;;;;;;14.28;100.00;92830.75;6256017;22;20078;-81
2023/10/14 00:32:35;;;;;;;19.80;14.23;;;;;;;14.29;100.00;92825.16;6232980;22;20033;-81
2023/10/14 00:35:03;;;;;;;21.92;14.32;;;;;;;14.29;100.00;92817.25;6281685;22;20000;-80
2023/10/14 00:37:32;;;;;;;19.55;13.77;;;;;;;14.30;100.00;92813.56;6255828;22;20022;-80
2023/10/14 00:40:03;;;;;;;19.65;13.30;;;;;;;14.32;100.00;92816.69;6256255;22;20109;-80
2023/10/14 00:42:29;;;;;;;25.50;13.82;;;;;;;14.35;100.00;92810.03;6256877;22;20014;-81
2023/10/14 00:44:56;;;;;;;20.60;13.63;;;;;;;14.34;100.00;92804.00;6281288;22;20007;-80
2023/10/14 00:47:24;;;;;;;20.52;13.75;;;;;;;14.31;100.00;92809.84;6308168;22;20011;-80
2023/10/14 00:49:52;;;;;;;21.05;14.43;;;;;;;14.29;100.00;92804.09;6308693;22;20010;-80
2023/10/14 00:52:18;;;;;;;20.45;13.07;;;;;;;14.27;100.00;92803.63;6281762;22;20015;-81
2023/10/14 00:57:20;;;;;;;22.42;13.90;;;;;;;14.27;100.00;92794.94;6308757;22;20056;-81
2023/10/14 00:59:53;;;;;;;19.10;13.68;;;;;;;14.24;100.00;92777.13;6255276;22;20022;-81
2023/10/14 01:02:41;;;;;;;21.23;13.70;;;;;;;14.24;100.00;92787.66;6281580;22;20042;-81
2023/10/14 01:05:18;;;;;;;19.40;12.65;;;;;;;14.22;100.00;92780.06;6280393;22;20456;-80
2023/10/14 01:07:44;;;;;;;20.88;12.98;;;;;;;14.20;100.00;92776.94;6283728;22;20026;-81
2023/10/14 01:10:12;;;;;;;18.98;12.95;;;;;;;14.19;100.00;92775.41;6282064;22;20007;-82
2023/10/14 01:12:53;;;;;;;18.40;13.48;;;;;;;14.19;100.00;92769.38;6255545;22;20011;-79
2023/10/14 01:15:20;;;;;;;17.35;12.55;;;;;;;14.18;100.00;92768.56;6308585;22;20014;-81
2023/10/14 01:17:46;;;;;;;17.85;13.13;;;;;;;14.21;100.00;92767.19;6256675;22;20010;-80
2023/10/14 01:22:52;;;;;;;19.48;13.60;;;;;;;14.20;100.00;92771.69;6281452;22;19999;-81
2023/10/14 01:25:24;;;;;;;19.08;13.23;;;;;;;14.19;100.00;92769.38;6308496;22;20487;-80
2023/10/14 01:27:50;;;;;;;18.55;13.02;;;;;;;14.18;100.00;92776.47;6282266;22;20007;-81
2023/10/14 01:30:19;;;;;;;18.85;12.60;;;;;;;14.17;100.00;92774.91;6280682;22;20588;-81
2023/10/14 01:35:31;;;;;;;17.48;12.70;;;;;;;14.15;100.00;92764.69;6281449;22;20011;-81
2023/10/14 01:37:58;;;;;;;22.63;12.93;;;;;;;14.14;100.00;92759.72;6281401;22;20011;-81
2023/10/14 01:42:57;;;;;;;16.08;12.25;;;;;;;14.13;100.00;92747.63;6282411;22;20049;-81
2023/10/14 01:45:39;;;;;;;25.55;12.75;;;;;;;14.11;100.00;92755.81;6309209;22;19999;-80
2023/10/14 01:50:38;;;;;;;16.92;12.25;;;;;;;14.07;100.00;92746.19;6280431;22;19995;-80
2023/10/14 01:53:11;;;;;;;16.65;12.15;;;;;;;13.99;100.00;92734.56;6279787;22;20180;-80
2023/10/14 01:55:42;;;;;;;18.75;11.82;;;;;;;13.99;100.00;92739.03;6280634;22;20046;-79
2023/10/14 01:58:12;;;;;;;17.27;12.82;;;;;;;13.95;100.00;92731.72;6280244;22;20015;-80
2023/10/14 02:00:39;;;;;;;16.30;12.15;;;;;;;13.94;100.00;92742.56;6280527;22;20049;-80
2023/10/14 02:03:08;;;;;;;19.75;12.48;;;;;;;13.93;100.00;92730.47;6307697;22;20064;-82
2023/10/14 02:05:39;;;;;;;21.02;12.95;;;;;;;13.91;100.00;92728.13;6279765;22;20017;-80
2023/10/14 02:08:16;;;;;;;17.65;12.68;;;;;;;13.89;100.00;92714.53;6308222;22;20031;-80
2023/10/14 02:10:51;;;;;;;18.80;12.57;;;;;;;13.90;100.00;92720.56;6308727;22;20017;-80
2023/10/14 02:13:21;;;;;;;17.55;12.45;;;;;;;13.89;100.00;92722.44;6256553;22;20011;-80
2023/10/14 02:15:47;;;;;;;16.55;12.20;;;;;;;13.90;100.00;92716.06;6283086;22;20030;-81
2023/10/14 02:18:13;;;;;;;17.15;12.57;;;;;;;13.90;100.00;92716.06;6257264;22;20014;-81
2023/10/14 02:20:50;;;;;;;17.05;11.52;;;;;;;13.92;100.00;92713.16;6309043;22;20007;-81
2023/10/14 02:23:16;;;;;;;18.35;13.02;;;;;;;13.94;100.00;92705.75;6282979;22;20019;-81
2023/10/14 02:25:41;;;;;;;17.67;11.95;;;;;;;13.95;100.00;92702.00;6309331;22;20048;-81
2023/10/14 02:28:14;;;;;;;18.33;11.65;;;;;;;13.98;100.00;92700.63;6256817;22;20325;-80
2023/10/14 02:30:40;;;;;;;20.60;12.85;;;;;;;13.99;100.00;92692.44;6234775;22;20101;-81
2023/10/14 02:33:07;;;;;;;19.05;12.32;;;;;;;14.01;100.00;92692.16;6282830;22;20014;-81
2023/10/14 02:35:33;;;;;;;20.80;12.93;;;;;;;14.00;100.00;92688.72;6282545;22;20022;-80
2023/10/14 02:38:00;;;;;;;17.75;11.38;;;;;;;14.00;100.00;92687.94;6282049;22;19995;-79
2023/10/14 02:40:26;;;;;;;17.63;11.45;;;;;;;14.00;100.00;92687.94;6258725;22;20034;-81
2023/10/14 02:42:57;;;;;;;17.83;11.70;;;;;;;14.01;100.00;92685.03;6309125;22;20010;-79
2023/10/14 02:45:24;;;;;;;18.52;12.50;;;;;;;13.96;100.00;92672.00;6310338;22;20019;-81
2023/10/14 02:47:50;;;;;;;20.65;12.10;;;;;;;13.98;100.00;92677.72;6309588;22;20441;-82
2023/10/14 02:50:22;;;;;;;20.17;12.05;;;;;;;13.98;100.00;92666.41;6257162;22;20034;-81
2023/10/14 02:52:49;;;;;;;18.63;12.57;;;;;;;13.94;100.00;92669.66;6282824;22;20037;-81
2023/10/14 02:55:25;;;;;;;17.95;11.80;;;;;;;13.92;100.00;92663.16;6282393;22;20015;-82
2023/10/14 02:57:51;;;;;;;19.15;11.75;;;;;;;13.95;100.00;92671.19;6309622;22;20017;-81
2023/10/14 03:00:31;;;;;;;19.77;12.10;;;;;;;13.95;100.00;92671.19;6309654;22;20094;-81
2023/10/14 03:03:02;;;;;;;21.27;12.80;;;;;;;13.96;100.00;92666.75;6310046;22;20011;-81
2023/10/14 03:06:14;;;;;;;17.42;11.63;;;;;;;13.95;100.00;92665.94;6256421;22;20479;-81
2023/10/14 03:08:16;;;;;;;19.17;12.15;;;;;;;13.95;100.00;92670.44;6298008;22;20435;-81
2023/10/14 03:10:45;;;;;;;18.90;13.15;;;;;;;13.94;100.00;92669.66;6281056;22;20007;-80
2023/10/14 03:13:12;;;;;;;23.38;12.68;;;;;;;13.95;100.00;92671.19;6281897;22;20024;-81
2023/10/14 03:15:39;;;;;;;22.90;12.48;;;;;;;13.95;100.00;92670.44;6308827;22;20003;-81
2023/10/14 03:18:06;;;;;;;19.63;12.27;;;;;;;13.98;100.00;92671.69;6309334;22;20011;-80
2023/10/14 03:20:36;;;;;;;18.17;12.60;;;;;;;13.99;100.00;92673.25;6281596;22;20048;-80
2023/10/14 03:23:38;;;;;;;25.52;13.70;;;;;;;13.99;100.00;92660.09;6281661;22;20072;-80
2023/10/14 03:28:52;;;;;;;24.63;13.10;;;;;;;13.99;100.00;92660.09;6281692;22;20037;-81
2023/10/14 03:31:19;;;;;;;19.92;11.32;;;;;;;13.94;100.00;92653.88;6308901;22;20023;-81
2023/10/14 03:33:46;;;;;;;18.67;11.77;;;;;;;13.91;100.00;92659.72;6282308;22;20018;-81
2023/10/14 03:36:15;;;;;;;20.50;12.35;;;;;;;13.88;100.00;92657.69;6308817;22;20015;-80
2023/10/14 03:38:42;;;;;;;21.13;12.63;;;;;;;13.84;100.00;92659.38;6281282;22;20007;-81
2023/10/14 03:41:19;;;;;;;19.20;12.90;;;;;;;13.83;100.00;92660.47;6281198;22;20080;-80
2023/10/14 03:46:32;;;;;;;17.92;12.45;;;;;;;13.78;100.00;92649.28;6281259;22;20015;-81
2023/10/14 03:49:06;;;;;;;20.83;12.38;;;;;;;13.74;100.00;92654.38;6280670;22;20095;-81
2023/10/14 03:51:32;;;;;;;19.92;12.85;;;;;;;13.73;100.00;92652.81;6282154;22;20019;-80
2023/10/14 03:54:08;;;;;;;23.08;12.88;;;;;;;13.70;100.00;92654.19;6280827;22;20464;-80
2023/10/14 03:56:35;;;;;;;19.75;12.55;;;;;;;13.71;100.00;92652.34;6308286;22;20007;-79
2023/10/14 03:59:01;;;;;;;22.95;12.65;;;;;;;13.69;100.00;92644.78;6281392;22;20011;-80
2023/10/14 04:02:24;;;;;;;20.52;12.63;;;;;;;13.71;100.00;92649.72;6308874;22;20030;-81
2023/10/14 04:04:18;;;;;;;26.15;13.48;;;;;;;13.71;100.00;92644.44;6291508;22;20478;-79
2023/10/14 04:09:44;;;;;;;19.83;12.68;;;;;;;13.69;100.00;92636.06;6281235;22;20360;-80
2023/10/14 04:14:57;;;;;;;21.83;13.15;;;;;;;13.67;100.00;92630.38;6307621;22;20093;-81
2023/10/14 04:17:30;;;;;;;21.30;13.52;;;;;;;13.68;100.00;92622.16;6308589;22;20345;-80
2023/10/14 04:22:38;;;;;;;20.33;13.38;;;;;;;13.71;100.00;92613.69;6309025;22;20022;-81
2023/10/14 04:25:19;;;;;;;22.00;13.73;;;;;;;13.72;100.00;92609.19;6308258;22;20086;-81
2023/10/14 04:30:32;;;;;;;20.50;13.18;;;;;;;13.71;100.00;92607.63;6307992;22;20015;-81
2023/10/14 04:35:33;;;;;;;20.75;12.13;;;;;;;13.72;100.00;92593.41;6281523;22;20011;-81
2023/10/14 04:38:13;;;;;;;24.42;12.57;;;;;;;13.72;100.00;92593.41;6280691;22;20060;-81
2023/10/14 04:40:39;;;;;;;20.40;11.93;;;;;;;13.74;100.00;92596.50;6308705;22;20014;-80
2023/10/14 04:43:38;;;;;;;17.83;12.02;;;;;;;13.76;100.00;92599.63;6281624;22;20444;-80
2023/10/14 04:46:13;;;;;;;21.77;12.32;;;;;;;13.77;100.00;92601.16;6305801;22;20389;-80
2023/10/14 04:48:39;;;;;;;25.00;12.93;;;;;;;13.80;100.00;92599.78;6280505;22;20011;-81
2023/10/14 04:51:08;;;;;;;20.10;11.82;;;;;;;13.81;100.00;92594.22;6307937;22;20003;-82
2023/10/14 04:53:34;;;;;;;27.70;13.40;;;;;;;13.83;100.00;92594.69;6308053;22;20464;-79
2023/10/14 04:56:10;;;;;;;21.38;12.98;;;;;;;13.84;100.00;92585.72;6307133;22;20018;-80
2023/10/14 04:58:40;;;;;;;23.13;13.85;;;;;;;13.87;100.00;92589.59;6308323;22;20352;-79
2023/10/14 05:01:10;;;;;;;23.75;14.15;;;;;;;13.86;100.00;92586.19;6256629;22;20067;-80
2023/10/14 05:03:35;;;;;;;20.17;13.32;;;;;;;13.86;100.00;92591.44;6307292;22;20086;-80
2023/10/14 05:06:14;;;;;;;20.48;12.88;;;;;;;13.87;100.00;92585.13;6280388;22;20023;-80
2023/10/14 05:08:44;;;;;;;21.00;12.80;;;;;;;13.86;100.00;92594.06;6308187;22;20011;-81
2023/10/14 05:11:14;;;;;;;18.55;11.73;;;;;;;13.84;100.00;92585.72;6280707;22;20005;-81
2023/10/14 05:13:42;;;;;;;23.48;13.82;;;;;;;13.83;100.00;92583.41;6307704;22;20128;-81
2023/10/14 05:16:15;;;;;;;20.85;12.63;;;;;;;13.83;100.00;92581.53;6281835;22;19995;-81
2023/10/14 05:19:30;;;;;;;16.77;12.05;;;;;;;13.82;100.00;92579.19;6256664;22;20026;-80
2023/10/14 05:21:36;;;;;;;21.88;12.68;;;;;;;13.80;100.00;92578.72;6291161;22;20015;-81
2023/10/14 05:24:12;;;;;;;21.38;13.05;;;;;;;13.80;100.00;92584.75;6280596;22;20069;-80
2023/10/14 05:26:48;;;;;;;18.77;12.35;;;;;;;13.80;100.00;92571.59;6308083;22;20011;-81
2023/10/14 05:29:17;;;;;;;20.52;12.35;;;;;;;13.77;100.00;92566.19;6308431;22;20011;-80
2023/10/14 05:31:47;;;;;;;21.77;13.00;;;;;;;13.77;100.00;92568.81;6308133;22;20076;-80
2023/10/14 05:34:13;;;;;;;19.52;12.20;;;;;;;13.74;100.00;92572.84;6281346;22;20452;-81
2023/10/14 05:36:39;;;;;;;21.38;12.57;;;;;;;13.73;100.00;92581.78;6281237;22;19998;-81
2023/10/14 05:39:06;;;;;;;18.85;12.35;;;;;;;13.75;100.00;92571.75;6282048;22;20015;-80
2023/10/14 05:41:33;;;;;;;22.48;14.20;;;;;;;13.75;100.00;92566.47;6308916;22;19999;-81
2023/10/14 05:43:59;;;;;;;21.30;14.10;;;;;;;13.78;100.00;92573.00;6308574;22;20326;-81
2023/10/14 05:46:24;;;;;;;20.95;13.70;;;;;;;13.80;100.00;92573.47;6309843;22;20056;-82
2023/10/14 05:48:53;;;;;;;19.63;13.32;;;;;;;13.80;100.00;92563.72;6310784;22;20441;-81
2023/10/14 05:51:19;;;;;;;19.40;12.82;;;;;;;13.84;100.00;92575.19;6310263;22;20003;-82
2023/10/14 05:53:48;;;;;;;19.35;13.32;;;;;;;13.90;100.00;92575.84;6282970;22;20023;-81
2023/10/14 05:56:17;;;;;;;24.63;13.73;;;;;;;13.96;100.00;92577.25;6310493;22;20029;-79
2023/10/14 05:58:45;;;;;;;20.20;13.50;;;;;;;14.08;100.00;92585.34;6311832;22;20433;-80
2023/10/14 06:01:13;;;;;;;21.13;14.43;;;;;;;14.22;100.00;92590.50;6257737;22;20007;-84
2023/10/14 06:03:43;;;;;;;21.38;13.60;;;;;;;14.36;100.00;92579.84;6257774;22;20015;-81
2023/10/14 06:06:15;;;;;;;23.15;13.48;;;;;;;14.50;100.00;92584.97;6309225;22;20003;-81
2023/10/14 06:08:43;;;;;;;;;;;;;;;14.62;100.00;92587.81;6234380;22;20015;-81
2023/10/14 06:11:10;;;;;;;23.88;12.50;;;;;;;14.66;100.00;92599.31;6281094;22;19906;-82
2023/10/14 06:13:35;;;;;;;21.77;12.82;;;;;;;14.65;100.00;92592.47;6308777;22;20038;-81
2023/10/14 06:16:09;;;;;;;18.95;12.98;;;;;;;14.70;100.00;92605.50;6286248;22;20011;-81
2023/10/14 06:18:44;;;;;;;20.75;13.02;;;;;;;14.74;100.00;92606.41;6316915;22;20328;-81
2023/10/14 06:21:10;;;;;;;21.40;14.02;;;;;;;14.83;100.00;92600.41;6317081;22;19996;-81
2023/10/14 06:23:49;;;;;;;20.90;14.10;;;;;;;14.90;100.00;92600.72;6314798;22;20015;-83
2023/10/14 06:26:17;;;;;;;25.13;13.40;;;;;;;14.92;100.00;92598.53;6283050;22;20007;-82
2023/10/14 06:28:48;;;;;;;19.73;12.60;;;;;;;14.94;100.00;92596.38;6309443;22;20037;-79
2023/10/14 06:31:14;;;;;;;19.80;12.43;;;;;;;14.97;100.00;92598.38;6309292;22;20011;-79
2023/10/14 06:33:40;;;;;;;16.20;11.73;;;;;;;14.97;100.00;92601.00;6282793;22;20006;-80
2023/10/14 06:36:10;;;;;;;21.77;12.85;;;;;;;15.02;100.00;92595.59;6282566;22;20502;-80
2023/10/14 06:38:40;;;;;;;19.08;11.52;;;;;;;15.13;100.00;92599.47;6310257;22;19999;-82
2023/10/14 06:41:11;;;;;;;18.58;12.30;;;;;;;15.19;100.00;92598.22;6232353;22;20015;-81
2023/10/14 06:43:37;;;;;;;19.40;12.23;;;;;;;15.25;100.00;92590.16;6282231;22;20041;-82
2023/10/14 06:46:05;;;;;;;18.55;12.52;;;;;;;15.47;100.00;92597.09;6256921;22;19999;-80
2023/10/14 06:48:32;;;;;;;18.95;11.65;;;;;;;15.53;100.00;92601.91;6282853;22;20090;-81
2023/10/14 06:50:59;;;;;;;16.95;12.52;;;;;;;15.50;100.00;92602.53;6281612;22;20011;-80
2023/10/14 06:53:28;;;;;;;19.02;12.85;;;;;;;15.48;100.00;92599.44;6284371;22;20018;-85
2023/10/14 06:55:54;;;;;;;20.48;12.57;;;;;;;15.51;100.00;92598.03;6311507;22;20043;-84
2023/10/14 06:58:21;;;;;;;21.13;12.63;;;;;;;15.44;100.00;92601.13;6309530;22;20457;-81
2023/10/14 07:00:48;;;;;;;15.75;11.00;;;;;;;15.41;100.00;92599.13;6308606;22;20011;-81
2023/10/14 07:03:15;;;;;;;15.45;11.43;;;;;;;15.39;100.00;92598.66;6256913;22;20015;-81
2023/10/14 07:05:48;;;;;;;19.83;12.55;;;;;;;15.25;100.00;92598.84;6281281;22;20007;-82
2023/10/14 07:08:15;;;;;;;21.75;13.30;;;;;;;15.16;100.00;92598.84;6256385;22;20015;-80
2023/10/14 07:10:51;;;;;;;19.02;12.23;;;;;;;15.01;100.00;92595.91;6282844;22;19999;-80
2023/10/14 07:13:19;;;;;;;20.23;13.35;;;;;;;15.02;100.00;92600.09;6311617;22;20037;-80
2023/10/14 07:15:44;;;;;;;19.50;13.90;;;;;;;15.06;100.00;92598.38;6309495;22;19999;-80
2023/10/14 07:18:13;;;;;;;20.38;12.98;;;;;;;15.08;100.00;92594.34;6310311;22;20075;-80
2023/10/14 07:20:45;;;;;;;20.65;13.98;;;;;;;15.18;100.00;92596.69;6283516;22;19999;-80
2023/10/14 07:23:11;;;;;;;19.85;12.85;;;;;;;15.29;100.00;92593.72;6283141;22;20433;-80
2023/10/14 07:25:41;;;;;;;17.88;12.90;;;;;;;15.35;100.00;92597.75;6281291;22;20006;-80
2023/10/14 07:28:14;;;;;;;19.45;13.27;;;;;;;15.33;100.00;92605.19;6280508;22;20019;-79
2023/10/14 07:30:48;;;;;;;20.80;13.25;;;;;;;15.39;100.00;92609.22;6255736;22;20015;-80
2023/10/14 07:33:19;;;;;;;20.63;13.65;;;;;;;15.38;100.00;92607.69;6310654;22;20027;-79
2023/10/14 07:35:47;;;;;;;20.83;12.93;;;;;;;15.33;100.00;92611.25;6281739;22;20011;-79
2023/10/14 07:38:12;;;;;;;21.70;12.27;;;;;;;15.49;100.00;92619.47;6282410;22;19995;-80
2023/10/14 07:40:38;;;;;;;19.35;12.60;;;;;;;15.34;100.00;92615.44;6309859;22;20011;-79
2023/10/14 07:43:07;;;;;;;17.83;12.23;;;;;;;15.33;100.00;92606.00;6255798;22;20055;-79
2023/10/14 07:45:38;;;;;;;19.98;12.65;;;;;;;15.37;100.00;92598.22;6308747;22;20082;-79
2023/10/14 07:48:11;;;;;;;19.48;12.75;;;;;;;15.39;100.00;92591.53;6281185;22;20011;-80
2023/10/14 07:50:38;;;;;;;21.88;12.68;;;;;;;15.37;100.00;92590.28;6311337;22;20015;-79
2023/10/14 07:53:08;;;;;;;19.73;12.52;;;;;;;15.35;100.00;92587.97;6258117;22;20003;-80
2023/10/14 07:55:38;;;;;;;19.17;11.70;;;;;;;15.38;100.00;92592.63;6257676;22;20022;-79
2023/10/14 07:58:08;;;;;;;21.00;11.88;;;;;;;15.43;100.00;92596.19;6309972;22;20003;-79
2023/10/14 08:00:54;;;;;;;19.05;12.30;;;;;;;15.61;100.00;92600.34;6256899;22;20015;-80
2023/10/14 08:03:25;;;;;;;16.17;12.02;;;;;;;15.83;100.00;92596.75;6308497;22;20064;-80
2023/10/14 08:05:53;;;;;;;17.83;12.27;;;;;;;16.00;100.00;92601.97;6310316;22;20053;-80
2023/10/14 08:08:21;;;;;;;19.65;12.18;;;;;;;16.28;100.00;92598.91;6308585;22;19999;-80
2023/10/14 08:10:50;;;;;;;19.40;11.48;;;;;;;16.62;100.00;92603.22;6309209;22;20022;-79
2023/10/14 08:13:21;;;;;;;16.30;11.40;;;;;;;17.06;100.00;92611.66;6309443;22;20023;-79
2023/10/14 08:15:51;;;;;;;15.20;11.35;;;;;;;17.46;100.00;92607.75;6309766;22;20018;-84
2023/10/14 08:18:19;;;;;;;18.50;10.70;;;;;;;17.85;100.00;92600.41;6281942;22;20164;-80
2023/10/14 08:20:45;;;;;;;15.07;10.02;;;;;;;17.96;100.00;92606.06;6309751;22;19999;-81
2023/10/14 08:23:11;;;;;;;14.65;10.65;;;;;;;18.13;100.00;92599.78;6258215;22;20428;-82
2023/10/14 08:25:46;;;;;;;15.77;10.13;;;;;;;18.44;100.00;92605.31;6312198;22;19999;-80
2023/10/14 08:28:12;;;;;;;15.00;10.13;;;;;;;18.68;100.00;92595.81;6282200;22;20332;-79
2023/10/14 08:30:45;;;;;;;17.13;10.57;;;;;;;18.62;100.00;92597.13;6283407;22;20005;-79
2023/10/14 08:33:15;;;;;;;16.20;10.90;;;;;;;18.47;100.00;92596.72;6312315;22;20037;-79
2023/10/14 08:35:42;;;;;;;15.82;10.68;;;;;;;18.61;100.00;92598.25;6285088;22;20109;-79
2023/10/14 08:38:11;;;;;;;23.42;11.02;;;;;;;18.92;100.00;92603.75;6314033;22;19991;-79
2023/10/14 08:40:39;;;;;;;16.90;11.50;;;;;;;18.80;100.00;92601.13;6310905;22;20019;-79
2023/10/14 08:43:08;;;;;;;16.45;10.93;;;;;;;18.95;100.00;92593.59;6285403;22;20007;-80
2023/10/14 08:45:36;;;;;;;15.65;10.82;;;;;;;19.06;100.00;92594.66;6312925;22;20011;-79
2023/10/14 08:48:08;;;;;;;15.93;10.50;;;;;;;19.29;100.00;92585.06;6311491;22;20010;-79
2023/10/14 08:50:35;;;;;;;16.42;10.95;;;;;;;19.62;100.00;92592.03;6312820;22;20013;-79
2023/10/14 08:53:15;;;;;;;15.70;10.70;;;;;;;19.37;100.00;92588.69;6313269;22;20003;-77
2023/10/14 08:55:44;;;;;;;17.00;10.88;;;;;;;19.45;100.00;92598.38;6313280;22;20039;-78
2023/10/14 08:58:17;;;;;;;19.38;12.43;;;;;;;19.53;100.00;92594.06;6289036;22;20325;-78
2023/10/14 09:00:44;;;;;;;15.25;10.32;;;;;;;19.59;100.00;92597.22;6313717;22;20382;-78
2023/10/14 09:03:11;;;;;;;15.70;10.65;;;;;;;19.63;100.00;92595.44;6310930;22;19995;-77
2023/10/14 09:05:40;;;;;;;13.60;9.68;;;;;;;19.83;100.00;92594.47;6314635;22;20021;-79
2023/10/14 09:08:09;;;;;;;17.50;9.98;;;;;;;19.83;100.00;92591.06;6287279;22;20078;-79
2023/10/14 09:10:37;;;;;;;13.85;9.00;;;;;;;19.79;100.00;92590.19;6289068;22;20490;-79
2023/10/14 09:13:06;;;;;;;14.95;9.75;;;;;;;19.68;100.00;92598.63;6310825;22;19995;-79
2023/10/14 09:15:38;;;;;;;15.40;9.98;;;;;;;19.78;100.00;92588.66;6310102;22;20038;-79
2023/10/14 09:18:09;;;;;;;;;;;;;;;19.46;100.00;92593.88;6311291;22;20011;-79
2023/10/14 09:20:38;;;;;;;16.05;10.35;;;;;;;19.41;100.00;92591.44;6314552;22;19926;-79
2023/10/14 09:23:24;;;;;;;15.00;10.38;;;;;;;19.47;100.00;92596.16;6317486;22;20021;-84
2023/10/14 09:25:58;;;;;;;13.43;10.00;;;;;;;19.14;100.00;92593.75;6290328;22;20015;-84
2023/10/14 09:28:26;;;;;;;13.90;9.68;;;;;;;19.19;100.00;92590.88;6311771;22;20015;-85
2023/10/14 09:30:56;;;;;;;15.48;10.02;;;;;;;18.98;100.00;92582.28;6314279;22;20058;-84
2023/10/14 09:33:29;;;;;;;19.00;10.65;;;;;;;19.03;100.00;92588.16;6285312;22;20398;-84
2023/10/14 09:36:11;;;;;;;16.63;10.15;;;;;;;18.88;100.00;92576.34;6314405;22;20007;-83
2023/10/14 09:38:38;;;;;;;13.48;9.60;;;;;;;18.62;100.00;92589.19;6285159;22;20051;-81
2023/10/14 09:41:05;;;;;;;19.08;10.43;;;;;;;18.45;100.00;92585.66;6317198;22;19999;-80
2023/10/14 09:43:48;;;;;;;14.63;9.80;;;;;;;18.31;100.00;92590.53;6264666;22;20388;-82
2023/10/14 09:46:19;;;;;;;15.68;9.75;;;;;;;18.20;100.00;92587.53;6289475;22;20018;-78
2023/10/14 09:48:46;;;;;;;16.45;10.73;;;;;;;17.92;100.00;92590.03;6315142;22;20014;-78
2023/10/14 09:51:16;;;;;;;17.42;10.63;;;;;;;17.74;100.00;92583.34;6263095;22;20078;-78
2023/10/14 09:53:46;;;;;;;16.70;10.23;;;;;;;17.80;100.00;92590.00;6316414;22;20021;-78
2023/10/14 09:56:12;;;;;;;16.65;10.77;;;;;;;17.97;100.00;92594.34;6314293;22;20016;-77
2023/10/14 09:58:41;;;;;;;16.38;10.38;;;;;;;17.96;100.00;92596.22;6314763;22;20459;-78
2023/10/14 10:01:11;;;;;;;18.90;10.35;;;;;;;17.89;100.00;92591.47;6313977;22;20018;-77
2023/10/14 10:03:48;;;;;;;15.55;10.88;;;;;;;18.06;100.00;92584.44;6312519;22;20090;-79
2023/10/14 10:06:35;;;;;;;15.55;9.88;;;;;;;18.33;100.00;92590.97;6313229;22;20011;-78
2023/10/14 10:09:19;;;;;;;17.00;10.13;;;;;;;18.29;100.00;92587.44;6314081;22;20036;-78
2023/10/14 10:11:50;;;;;;;15.70;10.70;;;;;;;18.07;100.00;92578.03;6287307;22;20015;-77
2023/10/14 10:14:24;;;;;;;19.35;10.07;;;;;;;18.23;100.00;92578.91;6287536;22;20034;-77
2023/10/14 10:16:56;;;;;;;21.17;10.68;;;;;;;18.41;100.00;92578.72;6315076;22;20010;-78
2023/10/14 10:19:22;;;;;;;24.17;11.63;;;;;;;18.78;100.00;92586.63;6314818;22;20007;-79
2023/10/14 10:22:13;;;;;;;14.95;10.98;;;;;;;18.81;100.00;92580.69;6315116;22;20066;-79
2023/10/14 10:24:45;;;;;;;13.32;8.60;;;;;;;18.98;100.00;92575.13;6316013;22;20026;-79
2023/10/14 10:27:10;;;;;;;14.18;9.30;;;;;;;18.59;100.00;92568.66;6288993;22;20022;-78
2023/10/14 10:29:45;;;;;;;14.95;8.55;;;;;;;18.72;100.00;92578.13;6315116;22;20189;-78
2023/10/14 10:32:34;;;;;;;13.95;8.85;;;;;;;18.72;100.00;92578.13;6261095;22;20006;-79
2023/10/14 10:35:06;;;;;;;15.25;8.73;;;;;;;18.96;100.00;92568.59;6294560;22;20082;-79
2023/10/14 10:37:49;;;;;;;14.00;9.38;;;;;;;18.85;100.00;92561.13;6314010;22;20421;-79
2023/10/14 10:40:25;;;;;;;12.38;8.38;;;;;;;18.63;100.00;92564.22;6313657;22;20061;-79
2023/10/14 10:42:57;;;;;;;12.23;8.98;;;;;;;18.35;100.00;92559.63;6314142;22;20011;-81
2023/10/14 10:45:30;;;;;;;16.70;9.82;;;;;;;18.21;100.00;92559.94;6312008;22;20527;-79
2023/10/14 10:47:58;;;;;;;15.98;9.43;;;;;;;18.14;100.00;92561.59;6309461;22;20035;-79
2023/10/14 10:50:36;;;;;;;13.43;7.68;;;;;;;18.14;100.00;92554.41;6307902;22;20017;-79
2023/10/14 10:53:08;;;;;;;10.88;7.10;;;;;;;17.85;100.00;92558.03;6310360;22;20018;-79
2023/10/14 10:55:42;;;;;;;13.05;8.30;;;;;;;17.98;100.00;92558.81;6281169;22;20510;-79
2023/10/14 10:58:11;;;;;;;11.98;7.82;;;;;;;18.39;100.00;92563.13;6308602;22;20084;-79
2023/10/14 11:00:38;;;;;;;13.55;8.80;;;;;;;18.41;100.00;92557.50;6281801;22;20352;-79
2023/10/14 11:03:05;;;;;;;12.25;8.82;;;;;;;18.26;100.00;92545.69;6282613;22;20353;-79
2023/10/14 11:05:33;;;;;;;14.07;9.63;;;;;;;17.86;100.00;92543.72;6281298;22;20455;-79
2023/10/14 11:08:01;;;;;;;17.85;9.43;;;;;;;17.86;100.00;92541.81;6256721;22;20011;-80
2023/10/14 11:10:28;;;;;;;18.25;9.60;;;;;;;17.83;100.00;92533.75;6308687;22;20290;-79
2023/10/14 11:12:54;;;;;;;13.48;9.52;;;;;;;17.93;100.00;92530.69;6308775;22;20090;-79
2023/10/14 11:15:21;;;;;;;17.60;9.90;;;;;;;18.24;100.00;92526.72;6287324;22;20017;-82
2023/10/14 11:17:52;;;;;;;14.60;10.13;;;;;;;18.58;100.00;92514.09;6266329;22;20015;-83
2023/10/14 11:20:18;;;;;;;13.52;8.65;;;;;;;18.68;100.00;92521.56;6318673;22;20034;-81
2023/10/14 11:22:45;;;;;;;12.70;8.50;;;;;;;18.82;100.00;92524.63;6288792;22;20003;-80
2023/10/14 11:25:13;;;;;;;13.18;8.25;;;;;;;18.91;100.00;92525.31;6316755;22;20007;-80
2023/10/14 11:27:41;;;;;;;13.38;8.25;;;;;;;19.10;100.00;92515.94;6263848;22;20118;-79
2023/10/14 11:30:11;;;;;;;14.48;8.38;;;;;;;18.61;100.00;92508.13;6288006;22;20360;-82
2023/10/14 11:32:43;;;;;;;12.90;8.23;;;;;;;18.52;100.00;92501.06;6315794;22;20011;-80
2023/10/14 11:35:10;;;;;;;13.10;8.77;;;;;;;18.63;100.00;92490.75;6288359;22;20235;-79
2023/10/14 11:37:37;;;;;;;12.80;8.65;;;;;;;18.57;100.00;92496.63;6314261;22;19991;-82
2023/10/14 11:40:13;;;;;;;15.90;8.13;;;;;;;18.44;100.00;92493.22;6313611;22;20073;-82
2023/10/14 11:42:42;;;;;;;15.50;8.52;;;;;;;18.45;100.00;92478.88;6312751;22;20015;-79
2023/10/14 11:45:09;;;;;;;13.20;8.00;;;;;;;18.38;100.00;92479.44;6309787;22;20336;-81
2023/10/14 11:47:41;;;;;;;12.65;7.93;;;;;;;18.30;100.00;92473.16;6282329;22;20065;-80
2023/10/14 11:50:37;;;;;;;13.68;8.20;;;;;;;18.38;100.00;92473.38;6311082;22;20015;-83
2023/10/14 11:53:03;;;;;;;13.45;7.70;;;;;;;18.35;100.00;92466.88;6313575;22;20003;-83
2023/10/14 11:55:29;;;;;;;14.80;9.40;;;;;;;18.09;100.00;92462.69;6311080;22;20106;-83
2023/10/14 11:58:08;;;;;;;12.38;7.60;;;;;;;18.05;100.00;92459.16;6285671;22;20014;-83